21:29
Airports
History
Links
Donate
Help keep this website running!
PayPal
Bitcoin
This page is community maintained. The information is intended for PC simulator navigation or reference.
Always use approved charts for navigation.
YCSV
Collinsville
Collinsville (YCSV)
Springlands, Queensland, Australia (4804)
4
Lat/Lng:20° 35' 56.47" S / 147° 51' 11.82" E
-20.599019 / 147.853282
Elevation:591'ft / 180mMSL
ID / ICAO:YCSV
Runways:1
Longest:06-24
Dirt 1,416m / 4,646ft
Nearby Weather21:00 GMT 2018-02-20
Nearby weather at YBPN, Proserpine Whitsunday Coast located 46.0 nautical miles from YCSV
Altimeter: 29.71
Visibility: 6.2 statute miles
Wind: 4 knots (from 190°)
Temp: 22°c / 72°f
Humidity: 94.1%

METAR: YBPN 202100Z AUTO 19004KT 9999 // SCT100 22/21 Q1006

(Powered by phpweather)
Airport Radio Frequencies
CTAF: 126.7
Runway 06 / 24
Dimensions:1416.2 x 36m 4646' x 118'ft
Surface:Dirt
Edge Lights:Low intensity
Runway 06 [A]Runway 24 [B]
Heading:065°TH 245°TH
Lat:
Lng:
20° 36' 5.91"S
147° 50' 49.63"E
20° 35' 47.02"S
147° 51' 34"E
User Notes and Comments
20° 35' 56.47" S / 147° 51' 11.82" E
Distance To
Airport ID:
Nearby Airports
4 MOUNT WICKHAM HS 25.9 NM
YMWC WNW 291°
4 CONWAY 39.7 NM
YCNW SW 229°
4 DALBEG 43.2 NM
YDBG WNW 303°
(C) Proserpine Whitsunday Coast 46.0 NM
YBPN ( WX ) E 80°
(C) Bowen 46.5 NM
YBWN NNE 30°
4 BURDEKIN WILDERNESS LODGE 49.0 NM
YBWI W 270°
4 Lakeside Airpark 50.6 NM
YLAK E 96°
VFR Chart
Flight Planning at SkyVector.com